createdAt,value
2022-09-24T00:01:36.754Z,4.20
2022-09-24T00:04:09.630Z,4.10
2022-09-24T00:06:42.391Z,4.38
2022-09-24T00:09:10.923Z,4.15
2022-09-24T00:11:38.753Z,4.57
2022-09-24T00:14:07.022Z,4.30
2022-09-24T00:16:34.641Z,4.47
2022-09-24T00:19:03.287Z,4.78
2022-09-24T00:21:35.612Z,4.72
2022-09-24T00:24:06.280Z,4.55
2022-09-24T00:26:51.022Z,4.43
2022-09-24T00:29:20.681Z,4.53
2022-09-24T00:31:48.047Z,4.50
2022-09-24T00:34:15.127Z,4.70
2022-09-24T00:36:42.042Z,4.82
2022-09-24T00:39:08.726Z,5.10
2022-09-24T00:41:39.452Z,5.95
2022-09-24T00:44:40.802Z,5.00
2022-09-24T00:47:45.034Z,4.78
2022-09-24T00:50:33.904Z,4.85
2022-09-24T00:53:18.244Z,4.50
2022-09-24T00:55:50.305Z,4.82
2022-09-24T00:58:17.979Z,4.72
2022-09-24T01:00:45.482Z,4.60
2022-09-24T01:03:18.769Z,5.10
2022-09-24T01:05:45.439Z,4.80
2022-09-24T01:08:16.868Z,4.32
2022-09-24T01:11:12.509Z,4.72
2022-09-24T01:13:48.322Z,4.90
2022-09-24T01:16:46.566Z,4.53
2022-09-24T01:19:25.787Z,4.80
2022-09-24T01:22:00.641Z,4.60
2022-09-24T01:25:04.524Z,5.50
2022-09-24T01:27:56.549Z,5.07
2022-09-24T01:30:25.369Z,5.32
2022-09-24T01:32:56.381Z,6.15
2022-09-24T01:35:27.373Z,6.07
2022-09-24T01:38:04.974Z,6.88
2022-09-24T01:40:32.453Z,7.70
2022-09-24T01:43:02.155Z,7.45
2022-09-24T01:45:31.113Z,6.68
2022-09-24T01:48:02.963Z,7.20
2022-09-24T01:50:34.398Z,6.90
2022-09-24T01:53:19.689Z,6.07
2022-09-24T01:55:52.286Z,5.68
2022-09-24T01:58:27.909Z,5.85
2022-09-24T02:01:03.303Z,6.40
2022-09-24T02:03:36.498Z,7.13
2022-09-24T02:06:10.608Z,6.50
2022-09-24T02:08:40.292Z,6.82
2022-09-24T02:11:16.796Z,6.30
2022-09-24T02:13:51.162Z,6.07
2022-09-24T02:16:23.116Z,6.97
2022-09-24T02:18:55.060Z,6.38
2022-09-24T02:21:24.924Z,5.88
2022-09-24T02:23:57.157Z,6.30
2022-09-24T02:26:23.904Z,6.97
2022-09-24T02:28:50.529Z,6.10
2022-09-24T02:31:26.733Z,6.38
2022-09-24T02:34:12.364Z,6.43
2022-09-24T02:36:39.841Z,6.15
2022-09-24T02:39:06.568Z,6.47
2022-09-24T02:41:34.118Z,6.22
2022-09-24T02:44:00.860Z,7.25
2022-09-24T02:46:27.603Z,6.95
2022-09-24T02:48:54.265Z,6.40
2022-09-24T02:51:21.826Z,6.20
2022-09-24T02:53:48.483Z,6.68
2022-09-24T02:56:15.077Z,6.47
2022-09-24T02:58:43.142Z,6.55
2022-09-24T03:01:09.884Z,6.75
2022-09-24T03:03:36.627Z,6.50
2022-09-24T03:06:03.262Z,6.28
2022-09-24T03:08:31.207Z,6.88
2022-09-24T03:10:58.099Z,6.72
2022-09-24T03:13:24.795Z,6.32
2022-09-24T03:15:51.468Z,6.50
2022-09-24T03:18:18.196Z,6.63
2022-09-24T03:20:58.082Z,6.65
2022-09-24T03:23:25.273Z,6.95
2022-09-24T03:25:51.858Z,7.35
2022-09-24T03:28:18.555Z,6.60
2022-09-24T03:31:00.958Z,6.93
2022-09-24T03:33:48.239Z,7.03
2022-09-24T03:36:21.578Z,7.38
2022-09-24T03:38:50.889Z,6.70
2022-09-24T03:41:18.998Z,7.63
2022-09-24T03:43:45.619Z,7.05
2022-09-24T03:46:13.615Z,7.05
2022-09-24T03:48:41.534Z,6.75
2022-09-24T03:51:13.493Z,7.43
2022-09-24T03:53:40.218Z,6.20
2022-09-24T03:56:07.798Z,6.63
2022-09-24T03:58:37.412Z,6.85
2022-09-24T04:01:04.621Z,7.57
2022-09-24T04:03:31.803Z,6.78
2022-09-24T04:05:58.490Z,6.65
2022-09-24T04:08:25.960Z,7.20
2022-09-24T04:10:52.932Z,6.53
2022-09-24T04:13:19.901Z,6.53
2022-09-24T04:15:46.796Z,7.38
2022-09-24T04:18:13.421Z,7.10
2022-09-24T04:20:40.438Z,6.60
2022-09-24T04:23:07.120Z,6.85
2022-09-24T04:25:34.308Z,7.07
2022-09-24T04:28:03.981Z,6.70
2022-09-24T04:30:31.862Z,6.32
2022-09-24T04:33:02.584Z,6.88
2022-09-24T04:35:31.166Z,7.07
2022-09-24T04:37:59.378Z,6.50
2022-09-24T04:40:27.072Z,6.70
2022-09-24T04:42:53.802Z,7.32
2022-09-24T04:45:21.060Z,7.00
2022-09-24T04:47:57.212Z,7.07
2022-09-24T04:50:26.263Z,6.57
2022-09-24T04:52:54.042Z,7.00
2022-09-24T04:55:21.235Z,7.43
2022-09-24T04:57:48.514Z,7.30
2022-09-24T05:00:17.973Z,6.65
2022-09-24T05:02:44.993Z,7.57
2022-09-24T05:05:12.653Z,7.30
2022-09-24T05:07:39.909Z,7.35
2022-09-24T05:10:07.027Z,7.38
2022-09-24T05:12:35.470Z,7.85
2022-09-24T05:15:02.400Z,6.63
2022-09-24T05:17:29.194Z,6.85
2022-09-24T05:19:57.817Z,7.50
2022-09-24T05:22:27.459Z,7.32
2022-09-24T05:24:54.468Z,6.75
2022-09-24T05:27:23.106Z,6.68
2022-09-24T05:29:50.312Z,6.47
2022-09-24T05:32:19.144Z,7.20
2022-09-24T05:34:46.411Z,6.72
2022-09-24T05:37:14.524Z,6.80
2022-09-24T05:39:41.209Z,6.55
2022-09-24T05:42:15.826Z,7.63
2022-09-24T05:44:49.814Z,7.75
2022-09-24T05:47:18.671Z,7.63
2022-09-24T05:49:45.237Z,8.25
2022-09-24T05:52:12.004Z,6.90
2022-09-24T05:55:03.384Z,8.07
2022-09-24T05:57:30.012Z,7.00
2022-09-24T05:59:56.619Z,6.93
2022-09-24T06:02:23.345Z,7.03
2022-09-24T06:04:49.996Z,7.18
2022-09-24T06:07:16.638Z,7.15
2022-09-24T06:09:44.187Z,7.35
2022-09-24T06:12:10.781Z,7.13
2022-09-24T06:14:37.452Z,6.85
2022-09-24T06:17:04.054Z,6.97
2022-09-24T06:19:30.683Z,6.80
2022-09-24T06:21:57.484Z,7.47
2022-09-24T06:24:24.116Z,6.68
2022-09-24T06:26:51.924Z,6.38
2022-09-24T06:29:18.498Z,6.88
2022-09-24T06:31:45.864Z,6.72
2022-09-24T06:34:12.554Z,6.88
2022-09-24T06:36:40.220Z,6.45
2022-09-24T06:39:07.755Z,5.88
2022-09-24T06:41:34.440Z,6.60
2022-09-24T06:44:01.260Z,6.45
2022-09-24T06:46:28.032Z,6.45
2022-09-24T06:48:55.017Z,6.22
2022-09-24T06:51:22.012Z,6.43
2022-09-24T06:53:52.674Z,6.38
2022-09-24T06:56:19.516Z,5.78
2022-09-24T06:58:46.661Z,6.32
2022-09-24T07:01:13.408Z,5.93
2022-09-24T07:03:40.526Z,5.93
2022-09-24T07:06:07.401Z,5.97
2022-09-24T07:08:34.933Z,6.57
2022-09-24T07:11:02.338Z,6.00
2022-09-24T07:13:29.230Z,5.78
2022-09-24T07:15:56.191Z,6.32
2022-09-24T07:18:23.090Z,5.63
2022-09-24T07:20:53.907Z,6.13
2022-09-24T07:23:21.552Z,5.85
2022-09-24T07:25:48.905Z,6.10
2022-09-24T07:28:16.318Z,5.88
2022-09-24T07:30:43.357Z,5.68
2022-09-24T07:33:10.430Z,5.90
2022-09-24T07:35:39.238Z,5.60
2022-09-24T07:38:11.944Z,6.10
2022-09-24T07:40:39.440Z,5.03
2022-09-24T07:43:13.613Z,5.75
2022-09-24T07:45:41.215Z,5.38
2022-09-24T07:48:09.518Z,6.00
2022-09-24T07:50:39.572Z,5.45
2022-09-24T07:53:06.705Z,5.85
2022-09-24T07:55:39.351Z,5.40
2022-09-24T07:58:07.841Z,5.25
2022-09-24T08:00:35.240Z,5.85
2022-09-24T08:03:03.481Z,5.18
2022-09-24T08:05:30.328Z,4.88
2022-09-24T08:07:57.695Z,5.75
2022-09-24T08:10:26.933Z,4.97
2022-09-24T08:12:53.880Z,5.45
2022-09-24T08:15:22.697Z,4.97
2022-09-24T08:17:49.522Z,4.93
2022-09-24T08:20:16.329Z,5.80
2022-09-24T08:22:42.923Z,5.38
2022-09-24T08:25:09.692Z,5.18
2022-09-24T08:27:37.591Z,5.40
2022-09-24T08:30:05.631Z,5.03
2022-09-24T08:32:32.261Z,5.25
2022-09-24T08:34:59.506Z,5.10
2022-09-24T08:37:27.836Z,4.75
2022-09-24T08:39:54.497Z,5.00
2022-09-24T08:42:55.414Z,5.40
2022-09-24T08:45:40.592Z,5.50
2022-09-24T08:48:20.601Z,4.57
2022-09-24T08:51:01.236Z,4.75
2022-09-24T08:53:42.866Z,5.03
2022-09-24T08:56:10.566Z,5.03
2022-09-24T08:59:24.041Z,4.75
2022-09-24T09:02:13.476Z,5.00
2022-09-24T09:05:02.818Z,5.30
2022-09-24T09:07:44.374Z,4.95
2022-09-24T09:10:16.223Z,4.80
2022-09-24T09:12:52.469Z,4.78
2022-09-24T09:15:30.203Z,5.07
2022-09-24T09:18:10.297Z,5.15
2022-09-24T09:20:41.775Z,5.35
2022-09-24T09:23:17.468Z,5.28
2022-09-24T09:25:56.712Z,5.53
2022-09-24T09:28:23.475Z,5.03
2022-09-24T09:31:06.433Z,5.28
2022-09-24T09:33:49.698Z,5.75
2022-09-24T09:36:21.506Z,5.20
2022-09-24T09:39:16.979Z,5.80
2022-09-24T09:42:25.956Z,5.45
2022-09-24T09:44:53.312Z,5.15
2022-09-24T09:47:46.033Z,5.25
2022-09-24T09:50:46.483Z,5.30
2022-09-24T09:53:27.792Z,4.93
2022-09-24T09:55:57.389Z,5.05
2022-09-24T09:58:27.031Z,4.80
2022-09-24T10:01:10.460Z,4.40
2022-09-24T10:03:46.534Z,4.85
2022-09-24T10:06:23.226Z,4.78
2022-09-24T10:08:49.929Z,4.20
2022-09-24T10:11:17.701Z,4.63
2022-09-24T10:13:45.427Z,4.75
2022-09-24T10:16:15.614Z,3.88
2022-09-24T10:21:13.088Z,3.83
2022-09-24T10:23:42.892Z,4.53
2022-09-24T10:26:10.356Z,4.35
2022-09-24T10:29:04.812Z,4.40
2022-09-24T10:31:35.510Z,4.13
2022-09-24T10:34:03.132Z,3.72
2022-09-24T10:36:32.583Z,4.20
2022-09-24T10:39:25.323Z,4.13
2022-09-24T10:41:55.861Z,4.45
2022-09-24T10:44:23.586Z,4.20
2022-09-24T10:47:11.568Z,3.53
2022-09-24T10:49:51.737Z,4.22
2022-09-24T10:52:28.397Z,4.25
2022-09-24T10:55:17.702Z,4.35
2022-09-24T10:57:56.951Z,4.55
2022-09-24T11:00:26.853Z,4.70
2022-09-24T11:03:20.600Z,4.40
2022-09-24T11:05:53.048Z,4.07
2022-09-24T11:08:29.743Z,4.30
2022-09-24T11:11:34.128Z,3.83
2022-09-24T11:14:16.356Z,4.18
2022-09-24T11:17:05.156Z,4.20
2022-09-24T11:19:48.814Z,4.25
2022-09-24T11:22:37.142Z,4.57
2022-09-24T11:25:27.613Z,3.75
2022-09-24T11:28:21.512Z,4.20
2022-09-24T11:31:03.391Z,4.78
2022-09-24T11:34:07.389Z,4.38
2022-09-24T11:36:59.853Z,4.30
2022-09-24T11:40:01.995Z,4.20
2022-09-24T11:42:37.677Z,3.72
2022-09-24T11:45:34.209Z,4.60
2022-09-24T11:48:18.685Z,4.10
2022-09-24T11:51:06.016Z,4.22
2022-09-24T11:53:59.068Z,3.90
2022-09-24T11:56:33.837Z,4.30
2022-09-24T11:59:21.569Z,3.92
2022-09-24T12:01:56.388Z,4.13
2022-09-24T12:04:46.156Z,4.00
2022-09-24T12:07:17.756Z,3.75
2022-09-24T12:09:58.766Z,4.18
2022-09-24T12:12:34.294Z,3.80
2022-09-24T12:15:12.837Z,3.80
2022-09-24T12:17:51.353Z,4.18
2022-09-24T12:20:26.379Z,3.65
2022-09-24T12:25:51.450Z,3.78
2022-09-24T12:28:38.702Z,4.30
2022-09-24T12:31:31.169Z,3.88
2022-09-24T12:34:26.350Z,4.88
2022-09-24T12:37:07.098Z,4.07
2022-09-24T12:39:45.309Z,3.70
2022-09-24T12:42:13.764Z,4.13
2022-09-24T12:44:50.386Z,4.18
2022-09-24T12:47:26.408Z,3.50
2022-09-24T12:50:08.393Z,3.92
2022-09-24T12:52:40.362Z,3.80
2022-09-24T12:55:19.086Z,4.20
2022-09-24T12:57:53.530Z,4.70
2022-09-24T13:00:34.536Z,3.95
2022-09-24T13:03:02.665Z,3.72
2022-09-24T13:05:35.126Z,4.05
2022-09-24T13:08:07.822Z,4.40
2022-09-24T13:10:36.591Z,4.15
2022-09-24T13:16:27.375Z,4.10
2022-09-24T13:18:56.941Z,5.07
2022-09-24T13:21:27.010Z,6.03
2022-09-24T13:23:54.239Z,5.95
2022-09-24T13:26:20.828Z,5.18
2022-09-24T13:28:48.864Z,4.65
2022-09-24T13:31:22.850Z,4.30
2022-09-24T13:34:10.548Z,4.45
2022-09-24T13:36:48.805Z,4.90
2022-09-24T13:39:42.510Z,5.40
2022-09-24T13:42:20.440Z,4.85
2022-09-24T13:44:52.988Z,5.55
2022-09-24T13:47:30.520Z,5.95
2022-09-24T13:50:16.456Z,6.45
2022-09-24T13:52:59.368Z,6.65
2022-09-24T13:55:56.959Z,6.22
2022-09-24T13:58:43.109Z,24.60
2022-09-24T14:01:30.154Z,36.35
2022-09-24T14:04:03.644Z,40.72
2022-09-24T14:06:39.144Z,12.77
2022-09-24T14:09:35.356Z,18.58
2022-09-24T14:12:14.640Z,6.35
2022-09-24T14:14:47.536Z,6.68
2022-09-24T14:17:15.431Z,5.72
2022-09-24T14:19:42.789Z,5.88
2022-09-24T14:22:22.258Z,5.30
2022-09-24T14:25:06.197Z,6.07
2022-09-24T14:27:36.246Z,6.25
2022-09-24T14:30:06.515Z,7.32
2022-09-24T14:32:37.034Z,5.95
2022-09-24T14:35:19.388Z,6.30
2022-09-24T14:37:52.646Z,6.43
2022-09-24T14:40:22.986Z,6.18
2022-09-24T14:42:55.688Z,6.75
2022-09-24T14:45:37.948Z,6.80
2022-09-24T14:48:25.020Z,5.60
2022-09-24T14:50:51.678Z,6.55
2022-09-24T14:53:35.904Z,5.75
2022-09-24T14:56:27.253Z,5.57
2022-09-24T14:58:54.368Z,6.78
2022-09-24T15:01:24.224Z,7.07
2022-09-24T15:03:57.091Z,6.93
2022-09-24T15:06:27.092Z,7.07
2022-09-24T15:09:01.042Z,6.35
2022-09-24T15:11:30.638Z,6.85
2022-09-24T15:14:24.946Z,6.30
2022-09-24T15:16:52.802Z,7.20
2022-09-24T15:19:25.338Z,7.15
2022-09-24T15:21:55.512Z,6.95
2022-09-24T15:24:22.822Z,7.35
2022-09-24T15:27:14.888Z,8.57
2022-09-24T15:29:41.728Z,7.20
2022-09-24T15:32:16.151Z,8.38
2022-09-24T15:34:43.199Z,8.55
2022-09-24T15:37:12.868Z,7.82
2022-09-24T15:39:40.345Z,7.45
2022-09-24T15:42:09.113Z,7.90
2022-09-24T15:44:35.792Z,9.20
2022-09-24T15:47:02.449Z,7.78
2022-09-24T15:49:29.109Z,9.30
2022-09-24T15:52:01.605Z,8.52
2022-09-24T15:54:28.889Z,8.70
2022-09-24T15:56:55.536Z,8.63
2022-09-24T15:59:23.456Z,8.00
2022-09-24T16:01:53.124Z,7.45
2022-09-24T16:04:20.720Z,8.35
2022-09-24T16:06:47.367Z,8.48
2022-09-24T16:09:14.078Z,8.88
2022-09-24T16:11:40.766Z,8.35
2022-09-24T16:14:07.796Z,9.63
2022-09-24T16:16:34.533Z,8.45
2022-09-24T16:19:01.204Z,8.70
2022-09-24T16:21:27.827Z,8.85
2022-09-24T16:23:56.200Z,8.10
2022-09-24T16:26:23.173Z,8.55
2022-09-24T16:28:51.484Z,8.85
2022-09-24T16:31:21.378Z,8.18
2022-09-24T16:33:48.685Z,8.57
2022-09-24T16:36:15.633Z,8.30
2022-09-24T16:38:42.213Z,7.20
2022-09-24T16:41:10.508Z,7.13
2022-09-24T16:43:37.460Z,7.30
2022-09-24T16:46:08.708Z,7.40
2022-09-24T16:48:35.717Z,7.32
2022-09-24T16:51:10.710Z,7.63
2022-09-24T16:53:38.199Z,8.15
2022-09-24T16:56:07.739Z,7.85
2022-09-24T16:58:35.051Z,7.88
2022-09-24T17:01:05.840Z,8.30
2022-09-24T17:03:33.075Z,7.68
2022-09-24T17:05:59.968Z,7.65
2022-09-24T17:08:49.823Z,7.75
2022-09-24T17:11:16.886Z,7.05
2022-09-24T17:13:43.895Z,7.25
2022-09-24T17:16:10.647Z,7.85
2022-09-24T17:18:37.305Z,7.13
2022-09-24T17:21:13.790Z,7.85
2022-09-24T17:23:40.575Z,7.68
2022-09-24T17:26:13.051Z,7.47
2022-09-24T17:28:42.983Z,7.10
2022-09-24T17:31:11.453Z,8.10
2022-09-24T17:33:43.376Z,7.35
2022-09-24T17:36:12.482Z,8.13
2022-09-24T17:38:39.496Z,8.30
2022-09-24T17:41:11.728Z,9.32
2022-09-24T17:43:39.449Z,9.55
2022-09-24T17:46:17.570Z,8.93
2022-09-24T17:48:47.536Z,9.70
2022-09-24T17:51:20.341Z,9.80
2022-09-24T17:53:47.390Z,9.80
2022-09-24T17:56:14.660Z,9.13
2022-09-24T17:58:43.812Z,10.30
2022-09-24T18:01:27.736Z,10.57
2022-09-24T18:03:56.552Z,9.25
2022-09-24T18:06:27.145Z,8.57
2022-09-24T18:08:57.029Z,10.88
2022-09-24T18:11:32.647Z,9.90
2022-09-24T18:14:01.197Z,9.30
2022-09-24T18:16:30.613Z,10.65
2022-09-24T18:18:59.744Z,11.00
2022-09-24T18:21:27.773Z,13.02
2022-09-24T18:23:55.912Z,12.10
2022-09-24T18:26:24.771Z,11.90
2022-09-24T18:28:52.888Z,12.23
2022-09-24T18:31:21.738Z,11.95
2022-09-24T18:33:51.072Z,12.57
2022-09-24T18:36:20.569Z,13.00
2022-09-24T18:38:47.466Z,14.32
2022-09-24T18:41:22.887Z,13.95
2022-09-24T18:43:51.756Z,14.63
2022-09-24T18:46:19.988Z,14.73
2022-09-24T18:48:49.283Z,15.25
2022-09-24T18:51:21.572Z,15.98
2022-09-24T18:53:53.848Z,16.27
2022-09-24T18:56:21.605Z,15.60
2022-09-24T18:58:48.634Z,16.23
2022-09-24T19:01:15.570Z,17.02
2022-09-24T19:03:43.396Z,15.95
2022-09-24T19:06:12.783Z,16.60
2022-09-24T19:08:40.066Z,16.80
2022-09-24T19:11:10.040Z,17.70
2022-09-24T19:13:38.661Z,17.58
2022-09-24T19:16:15.926Z,18.45
2022-09-24T19:18:42.951Z,17.92
2022-09-24T19:21:12.046Z,18.35
2022-09-24T19:23:40.872Z,18.50
2022-09-24T19:26:09.112Z,14.50
2022-09-24T19:28:36.210Z,14.27
2022-09-24T19:31:03.006Z,13.68
2022-09-24T19:33:29.763Z,12.45
2022-09-24T19:36:04.698Z,12.02
2022-09-24T19:38:34.902Z,11.35
2022-09-24T19:41:06.776Z,11.43
2022-09-24T19:43:34.328Z,10.68
2022-09-24T19:46:06.685Z,10.15
2022-09-24T19:48:37.993Z,9.82
2022-09-24T19:51:11.678Z,10.05
2022-09-24T19:53:38.301Z,9.32
2022-09-24T19:56:06.709Z,9.50
2022-09-24T19:58:33.363Z,18.75
2022-09-24T20:01:05.706Z,11.63
2022-09-24T20:03:34.076Z,11.27
2022-09-24T20:06:06.214Z,10.30
2022-09-24T20:08:32.854Z,12.55
2022-09-24T20:11:04.716Z,15.25
2022-09-24T20:13:32.144Z,15.43
2022-09-24T20:16:00.901Z,16.25
2022-09-24T20:18:27.666Z,16.02
2022-09-24T20:20:54.878Z,20.40
2022-09-24T20:23:23.517Z,17.02
2022-09-24T20:26:10.317Z,17.88
2022-09-24T20:28:37.309Z,17.75
2022-09-24T20:31:16.127Z,16.10
2022-09-24T20:33:43.138Z,14.57
2022-09-24T20:36:16.015Z,14.43
2022-09-24T20:38:45.825Z,13.90
2022-09-24T20:41:16.022Z,11.15
2022-09-24T20:46:21.947Z,8.68
2022-09-24T20:48:48.892Z,9.18
2022-09-24T20:51:18.239Z,7.20
2022-09-24T20:53:46.278Z,7.17
2022-09-24T20:56:13.891Z,7.35
2022-09-24T20:58:41.217Z,7.18
2022-09-24T21:01:09.279Z,7.50
2022-09-24T21:03:45.939Z,7.95
2022-09-24T21:06:15.097Z,7.30
2022-09-24T21:08:43.789Z,7.57
2022-09-24T21:11:19.085Z,7.55
2022-09-24T21:13:50.097Z,6.55
2022-09-24T21:16:19.890Z,7.30
2022-09-24T21:18:48.485Z,6.75
2022-09-24T21:21:17.587Z,7.43
2022-09-24T21:23:46.586Z,5.65
2022-09-24T21:26:18.454Z,5.97
2022-09-24T21:28:49.037Z,5.90
2022-09-24T21:31:18.156Z,5.22
2022-09-24T21:33:46.649Z,5.93
2022-09-24T21:36:16.477Z,5.55
2022-09-24T21:38:43.084Z,5.32
2022-09-24T21:41:09.857Z,4.88
2022-09-24T21:43:36.522Z,5.00
2022-09-24T21:46:06.514Z,5.20
2022-09-24T21:48:34.207Z,5.07
2022-09-24T21:51:13.785Z,4.80
2022-09-24T21:53:40.457Z,4.82
2022-09-24T21:56:07.332Z,5.47
2022-09-24T21:58:33.991Z,5.10
2022-09-24T22:01:04.641Z,5.00
2022-09-24T22:03:32.124Z,5.05
2022-09-24T22:06:03.356Z,5.10
2022-09-24T22:08:31.787Z,4.82
2022-09-24T22:11:07.342Z,4.80
2022-09-24T22:13:35.033Z,4.35
2022-09-24T22:16:01.913Z,5.13
2022-09-24T22:18:29.314Z,4.50
2022-09-24T22:20:57.606Z,4.57
2022-09-24T22:23:25.028Z,4.47
2022-09-24T22:25:58.774Z,4.05
2022-09-24T22:28:26.599Z,4.70
2022-09-24T22:30:55.492Z,4.63
2022-09-24T22:33:41.997Z,4.68
2022-09-24T22:36:09.113Z,4.38
2022-09-24T22:38:36.018Z,4.88
2022-09-24T22:41:04.691Z,4.80
2022-09-24T22:43:32.315Z,4.53
2022-09-24T22:46:04.419Z,4.75
2022-09-24T22:48:32.026Z,4.70
2022-09-24T22:50:58.679Z,4.78
2022-09-24T22:53:25.687Z,5.20
2022-09-24T22:56:13.008Z,5.00
2022-09-24T22:58:44.934Z,4.50
2022-09-24T23:01:24.149Z,4.47
2022-09-24T23:03:52.329Z,5.03
2022-09-24T23:06:20.773Z,5.25
2022-09-24T23:08:48.751Z,4.85
2022-09-24T23:11:16.673Z,4.70
2022-09-24T23:13:45.007Z,4.63
2022-09-24T23:16:19.924Z,4.90
2022-09-24T23:18:50.696Z,4.85
2022-09-24T23:21:19.494Z,5.55
2022-09-24T23:23:47.113Z,4.53
2022-09-24T23:26:17.163Z,5.72
2022-09-24T23:28:45.280Z,5.07
2022-09-24T23:31:14.120Z,5.25
2022-09-24T23:33:42.297Z,5.40
2022-09-24T23:36:12.032Z,5.40
2022-09-24T23:38:40.730Z,5.63
2022-09-24T23:41:09.037Z,5.68
2022-09-24T23:43:36.024Z,6.05
2022-09-24T23:46:03.729Z,5.93
2022-09-24T23:48:30.683Z,4.78
2022-09-24T23:50:58.416Z,5.93
2022-09-24T23:53:25.735Z,5.70
2022-09-24T23:55:54.025Z,6.47
2022-09-24T23:58:22.175Z,6.05
